Time;durP1;ratioP1;P1;durP2;ratioP2;P2;SDS_P1;SDS_P2;PMS_P1;PMS_P2;Temp;Humidity;BMP_temperature;BMP_pressure;BME280_temperature;BME280_humidity;BME280_pressure;Samples;Min_cycle;Max_cycle;Signal;HPM_P1;HPM_P2
2021/09/12 00:00:18;;;;;;;7.45;2.15;;;;;;;16.96;84.01;101864.22;6184363;23;20017;-80
2021/09/12 00:02:43;;;;;;;12.73;3.40;;;;;;;16.89;84.54;101866.78;6181993;23;20017;-81
2021/09/12 00:05:12;;;;;;;17.80;3.75;;;;;;;16.89;84.51;101864.13;6182779;23;20346;-81
2021/09/12 00:07:37;;;;;;;10.23;2.90;;;;;;;16.80;84.70;101863.19;6183400;23;20589;-80
2021/09/12 00:10:05;;;;;;;14.90;3.47;;;;;;;16.82;84.64;101864.09;6184721;23;20004;-79
2021/09/12 00:12:31;;;;;;;11.90;2.53;;;;;;;16.80;84.77;101865.84;6183713;23;20333;-80
2021/09/12 00:14:56;;;;;;;12.43;2.88;;;;;;;16.71;84.89;101860.44;6182430;23;20009;-79
2021/09/12 00:17:22;;;;;;;11.02;2.80;;;;;;;16.64;85.52;101861.28;6183823;23;20013;-79
2021/09/12 00:19:48;;;;;;;9.32;3.05;;;;;;;16.64;85.48;101855.97;6183294;23;20324;-81
2021/09/12 00:22:13;;;;;;;11.55;3.55;;;;;;;16.57;85.91;101854.16;6183492;23;20084;-79
2021/09/12 00:24:39;;;;;;;13.07;2.78;;;;;;;16.56;85.76;101863.00;6183261;23;20009;-79
2021/09/12 00:27:04;;;;;;;8.55;3.83;;;;;;;16.50;85.64;101854.09;6181097;23;20012;-80
2021/09/12 00:29:30;;;;;;;14.18;3.67;;;;;;;16.43;86.17;101852.28;6182855;23;20029;-80
2021/09/12 00:31:56;;;;;;;12.68;2.95;;;;;;;16.34;86.38;101846.88;6182375;23;20020;-79
2021/09/12 00:34:21;;;;;;;12.05;3.25;;;;;;;16.31;86.53;101842.41;6182885;23;20072;-80
2021/09/12 00:36:47;;;;;;;17.20;4.53;;;;;;;16.24;86.64;101839.72;6183069;23;20012;-79
2021/09/12 00:39:13;;;;;;;10.15;3.15;;;;;;;16.15;87.33;101830.75;6184263;23;20023;-79
2021/09/12 00:41:47;;;;;;;16.58;3.90;;;;;;;16.12;87.30;101837.84;6181108;23;20023;-80
2021/09/12 00:44:16;;;;;;;10.05;3.33;;;;;;;16.07;87.50;101832.47;6184108;23;20047;-80
2021/09/12 00:46:46;;;;;;;16.52;3.55;;;;;;;16.01;88.21;101838.59;6182360;23;20009;-78
2021/09/12 00:49:15;;;;;;;16.80;4.20;;;;;;;16.00;88.24;101842.13;6183805;23;20019;-81
2021/09/12 00:51:41;;;;;;;16.92;4.85;;;;;;;15.96;88.42;101834.13;6183439;23;20333;-80
2021/09/12 00:54:11;;;;;;;14.13;4.38;;;;;;;15.93;88.26;101850.91;6185513;23;20013;-80
2021/09/12 00:56:40;;;;;;;14.88;4.05;;;;;;;15.86;89.26;101843.78;6184559;23;20009;-79
2021/09/12 00:59:29;;;;;;;15.18;3.78;;;;;;;15.88;88.36;101841.13;6184357;23;20073;-80
2021/09/12 01:01:56;;;;;;;18.00;4.32;;;;;;;15.81;89.07;101848.13;6179839;23;20033;-79
2021/09/12 01:04:23;;;;;;;19.05;3.55;;;;;;;15.78;89.33;101851.59;6184663;23;20085;-78
2021/09/12 01:06:51;;;;;;;13.95;4.60;;;;;;;15.74;89.38;101847.13;6184673;23;20037;-80
2021/09/12 01:09:17;;;;;;;13.75;3.95;;;;;;;15.68;89.75;101844.41;6185490;23;20088;-80
2021/09/12 01:11:43;;;;;;;13.43;4.63;;;;;;;15.65;89.65;101839.06;6184909;23;20005;-80
2021/09/12 01:14:14;;;;;;;6.28;3.83;;;;;;;15.59;90.08;101831.94;6184411;23;20055;-81
2021/09/12 01:16:39;;;;;;;11.93;4.80;;;;;;;15.59;89.71;101837.22;6182718;23;20552;-81
2021/09/12 01:19:45;;;;;;;18.63;4.88;;;;;;;15.58;89.68;101831.91;6184026;23;20024;-79
2021/09/12 01:22:40;;;;;;;17.13;5.22;;;;;;;15.48;90.21;101836.22;6184689;23;20084;-80
2021/09/12 01:25:06;;;;;;;10.68;4.63;;;;;;;15.46;89.88;101837.94;6184671;23;20021;-80
2021/09/12 01:27:37;;;;;;;13.25;4.72;;;;;;;15.40;90.00;101833.47;6184174;23;20024;-80
2021/09/12 01:30:23;;;;;;;13.93;5.25;;;;;;;15.37;89.91;101838.75;6159219;23;20012;-79
2021/09/12 01:32:49;;;;;;;18.55;5.03;;;;;;;15.41;89.84;101832.59;6184019;23;20063;-80
2021/09/12 01:35:17;;;;;;;14.77;5.18;;;;;;;15.37;89.84;101830.78;6185420;23;20005;-80
2021/09/12 01:37:43;;;;;;;16.27;6.25;;;;;;;15.32;90.01;101833.38;6184040;23;20040;-80
2021/09/12 01:40:29;;;;;;;18.55;6.05;;;;;;;15.29;90.46;101841.28;6185896;23;20349;-80
2021/09/12 01:43:14;;;;;;;19.20;6.07;;;;;;;15.26;90.49;101835.03;6184378;23;20099;-80
2021/09/12 01:45:42;;;;;;;15.57;5.20;;;;;;;15.17;90.71;101841.13;6184068;23;20428;-80
2021/09/12 01:48:08;;;;;;;13.30;5.50;;;;;;;15.15;90.80;101848.16;6184062;23;20033;-81
2021/09/12 01:50:34;;;;;;;21.58;7.55;;;;;;;15.10;91.22;101849.88;6184603;23;20017;-80
2021/09/12 01:52:59;;;;;;;16.25;5.70;;;;;;;15.06;91.46;101851.59;6156816;23;20005;-79
2021/09/12 01:55:25;;;;;;;15.38;6.15;;;;;;;15.04;91.51;101842.69;6184965;23;20024;-80
2021/09/12 01:57:51;;;;;;;16.90;6.28;;;;;;;15.00;91.54;101839.13;6183957;23;20424;-80
2021/09/12 02:00:18;;;;;;;17.85;7.03;;;;;;;14.94;91.70;101846.09;6181194;23;20053;-82
2021/09/12 02:02:44;;;;;;;18.25;6.47;;;;;;;14.97;91.41;101844.38;6183604;23;20028;-82
2021/09/12 02:05:10;;;;;;;14.27;6.93;;;;;;;14.93;91.59;101842.53;6134273;23;20059;-81
2021/09/12 02:07:36;;;;;;;14.90;6.65;;;;;;;14.95;91.46;101845.25;6184628;23;20079;-80
2021/09/12 02:10:01;;;;;;;21.90;7.47;;;;;;;14.93;91.50;101841.66;6184500;23;20083;-80
2021/09/12 02:12:27;;;;;;;15.27;6.68;;;;;;;14.91;91.42;101843.44;6184367;23;19997;-81
2021/09/12 02:14:53;;;;;;;15.98;6.95;;;;;;;14.86;91.47;101842.47;6134869;23;20120;-80
2021/09/12 02:17:18;;;;;;;21.30;7.30;;;;;;;14.82;91.93;101846.81;6183532;23;20329;-81
2021/09/12 02:20:20;;;;;;;18.45;6.78;;;;;;;14.79;92.11;101847.66;6184945;23;20483;-82
2021/09/12 02:22:46;;;;;;;17.42;6.95;;;;;;;14.78;92.14;101843.22;6182862;23;20373;-81
2021/09/12 02:25:11;;;;;;;22.17;7.80;;;;;;;14.76;92.30;101842.31;6182872;23;20032;-80
2021/09/12 02:27:37;;;;;;;17.95;7.95;;;;;;;14.70;92.62;101844.84;6184271;23;20011;-80
2021/09/12 02:30:29;;;;;;;26.48;8.50;;;;;;;14.73;92.57;101847.56;6158338;23;20041;-80
2021/09/12 02:32:57;;;;;;;21.05;7.82;;;;;;;14.64;92.96;101845.66;6183821;23;20013;-80
2021/09/12 02:35:23;;;;;;;17.92;8.60;;;;;;;14.62;93.22;101851.75;6184977;23;20017;-80
2021/09/12 02:38:12;;;;;;;19.73;9.15;;;;;;;14.61;93.37;101849.97;6184686;23;20020;-80
2021/09/12 02:40:38;;;;;;;23.00;8.20;;;;;;;14.60;93.24;101842.91;6185246;23;20025;-80
2021/09/12 02:43:12;;;;;;;22.30;9.13;;;;;;;14.58;93.36;101839.34;6182363;23;20309;-80
2021/09/12 02:45:42;;;;;;;27.40;9.93;;;;;;;14.58;93.46;101847.28;6184627;23;20015;-80
2021/09/12 02:48:11;;;;;;;21.13;9.45;;;;;;;14.55;93.39;101841.94;6183715;23;20013;-81
2021/09/12 02:50:44;;;;;;;22.05;10.00;;;;;;;14.53;93.53;101841.00;6185327;23;20009;-80
2021/09/12 02:53:10;;;;;;;24.13;8.63;;;;;;;14.47;93.88;101842.72;6183935;23;20084;-80
2021/09/12 02:55:36;;;;;;;22.83;10.15;;;;;;;14.49;93.92;101840.09;6184382;23;20032;-80
2021/09/12 02:58:04;;;;;;;25.60;9.18;;;;;;;14.47;94.17;101845.38;6182861;23;20019;-80
2021/09/12 03:00:36;;;;;;;20.80;9.85;;;;;;;14.45;94.31;101843.56;6180366;23;20012;-81
2021/09/12 03:03:24;;;;;;;21.98;9.48;;;;;;;14.41;94.40;101844.38;6183179;23;20072;-79
2021/09/12 03:05:52;;;;;;;27.50;9.93;;;;;;;14.37;95.06;101846.06;6184252;23;20489;-80
2021/09/12 03:08:37;;;;;;;34.10;10.77;;;;;;;14.37;95.12;101855.78;6183607;23;20009;-79
2021/09/12 03:11:23;;;;;;;23.95;9.52;;;;;;;14.39;94.78;101848.72;6184120;23;20059;-80
2021/09/12 03:13:51;;;;;;;20.45;9.80;;;;;;;14.40;95.41;101854.03;6181640;23;20436;-80
2021/09/12 03:16:17;;;;;;;31.38;11.23;;;;;;;14.47;95.62;101858.59;6183517;23;20013;-79
2021/09/12 03:18:45;;;;;;;25.27;9.48;;;;;;;14.57;95.54;101853.44;6183551;23;20027;-79
2021/09/12 03:21:11;;;;;;;31.63;12.13;;;;;;;14.61;95.12;101848.22;6157684;23;20063;-80
2021/09/12 03:23:37;;;;;;;29.70;11.02;;;;;;;14.67;94.98;101839.50;6183116;23;20046;-80
2021/09/12 03:26:11;;;;;;;22.27;9.02;;;;;;;14.74;94.79;101843.16;6182758;23;20527;-80
2021/09/12 03:28:40;;;;;;;26.98;9.38;;;;;;;14.76;94.36;101844.06;6183214;23;20009;-80
2021/09/12 03:31:05;;;;;;;25.02;9.77;;;;;;;14.80;94.19;101845.91;6156871;23;20008;-80
2021/09/12 03:33:33;;;;;;;31.58;11.50;;;;;;;14.82;94.16;101839.75;6183098;23;20461;-81
2021/09/12 03:35:59;;;;;;;22.75;10.05;;;;;;;14.90;94.34;101844.28;6183532;23;20005;-80
2021/09/12 03:38:27;;;;;;;30.38;11.60;;;;;;;14.94;94.12;101838.16;6183739;23;20301;-81
2021/09/12 03:40:53;;;;;;;29.45;11.32;;;;;;;14.98;93.92;101846.16;6183642;23;20032;-80
2021/09/12 03:43:18;;;;;;;30.15;11.02;;;;;;;15.06;93.77;101848.94;6184355;23;20084;-81
2021/09/12 03:45:44;;;;;;;26.00;11.20;;;;;;;15.10;93.39;101850.75;6182698;23;20009;-80
2021/09/12 03:48:10;;;;;;;26.52;10.73;;;;;;;15.14;93.54;101852.59;6184174;23;20001;-82
2021/09/12 03:50:39;;;;;;;31.98;11.35;;;;;;;15.16;93.56;101850.81;6182486;23;20459;-80
2021/09/12 03:53:07;;;;;;;28.02;12.35;;;;;;;15.20;93.33;101845.59;6183341;23;20062;-82
2021/09/12 03:55:32;;;;;;;22.15;10.57;;;;;;;15.27;93.27;101848.31;6182503;23;20020;-81
2021/09/12 03:57:58;;;;;;;30.38;12.43;;;;;;;15.28;93.40;101851.88;6183249;23;20361;-80
2021/09/12 04:00:40;;;;;;;33.13;12.27;;;;;;;15.28;93.55;101860.72;6178886;23;20392;-81
2021/09/12 04:03:06;;;;;;;27.92;11.60;;;;;;;15.34;93.22;101850.19;6182386;23;20004;-80
2021/09/12 04:05:42;;;;;;;32.03;11.38;;;;;;;15.37;92.94;101846.69;6183128;23;20455;-82
2021/09/12 04:08:07;;;;;;;31.60;13.07;;;;;;;15.35;93.25;101851.09;6182011;23;20009;-80
2021/09/12 04:10:48;;;;;;;31.85;12.88;;;;;;;15.33;93.40;101847.53;6181563;23;20242;-83
2021/09/12 04:14:00;;;;;;;35.00;12.55;;;;;;;15.32;93.63;101851.94;6183479;23;20031;-82
2021/09/12 04:16:38;;;;;;;24.38;12.32;;;;;;;15.32;93.48;101851.06;6178800;23;20409;-82
2021/09/12 04:19:56;;;;;;;32.38;13.20;;;;;;;15.30;93.79;101843.06;6184240;23;20024;-83
2021/09/12 04:22:27;;;;;;;40.63;12.57;;;;;;;15.25;93.94;101841.25;6134762;23;20035;-80
2021/09/12 04:25:02;;;;;;;35.20;13.77;;;;;;;15.17;94.43;101841.13;6182498;23;20087;-81
2021/09/12 04:27:28;;;;;;;37.47;13.63;;;;;;;15.16;94.45;101839.34;6183695;23;20095;-80
2021/09/12 04:29:57;;;;;;;33.70;13.23;;;;;;;15.12;94.70;101837.53;6186776;23;20017;-81
2021/09/12 04:32:23;;;;;;;43.55;15.15;;;;;;;15.07;95.02;101837.47;6181432;23;20045;-80
2021/09/12 04:34:51;;;;;;;32.55;14.65;;;;;;;15.01;95.48;101840.03;6183483;23;20344;-81
2021/09/12 04:37:17;;;;;;;36.08;15.35;;;;;;;14.96;95.82;101837.31;6185318;23;20083;-80
2021/09/12 04:39:42;;;;;;;43.83;17.45;;;;;;;14.90;96.41;101839.88;6158607;23;20066;-79
2021/09/12 04:42:09;;;;;;;36.67;15.38;;;;;;;14.88;96.34;101835.41;6185750;23;20084;-79
2021/09/12 04:44:35;;;;;;;50.28;16.65;;;;;;;14.84;96.88;101831.84;6185648;23;20029;-79
2021/09/12 04:47:00;;;;;;;43.42;15.40;;;;;;;14.79;96.83;101831.75;6184077;23;20492;-79
2021/09/12 04:49:46;;;;;;;43.00;16.73;;;;;;;14.77;97.14;101833.50;6158800;23;20036;-80
2021/09/12 04:52:11;;;;;;;46.28;17.92;;;;;;;14.77;97.61;101835.25;6185153;23;20016;-79
2021/09/12 04:54:37;;;;;;;51.42;18.25;;;;;;;14.76;97.60;101837.00;6184888;23;20008;-81
2021/09/12 04:57:22;;;;;;;52.45;18.20;;;;;;;14.75;97.64;101842.28;6184046;23;20016;-78
2021/09/12 04:59:48;;;;;;;59.38;19.13;;;;;;;14.71;97.99;101836.03;6185181;23;20096;-80
2021/09/12 05:02:14;;;;;;;44.72;18.25;;;;;;;14.66;98.13;101841.28;6181437;23;20017;-80
2021/09/12 05:04:39;;;;;;;56.67;18.88;;;;;;;14.65;98.16;101841.28;6159156;23;20024;-78
2021/09/12 05:07:08;;;;;;;47.13;18.05;;;;;;;14.61;98.12;101840.28;6185305;23;20052;-80
2021/09/12 05:09:34;;;;;;;42.13;16.92;;;;;;;14.63;98.44;101845.63;6185525;23;20017;-80
2021/09/12 05:11:59;;;;;;;50.65;19.25;;;;;;;14.61;98.44;101848.22;6184998;23;20011;-80
2021/09/12 05:14:26;;;;;;;46.08;17.92;;;;;;;14.65;98.32;101843.91;6185749;23;20335;-79
2021/09/12 05:16:52;;;;;;;42.70;16.50;;;;;;;14.67;98.75;101839.50;6185362;23;20004;-79
2021/09/12 05:19:18;;;;;;;45.47;19.35;;;;;;;14.67;98.82;101848.34;6185437;23;20344;-80
2021/09/12 05:21:43;;;;;;;54.15;20.90;;;;;;;14.68;99.08;101854.56;6184437;23;20009;-79
2021/09/12 05:24:12;;;;;;;52.30;20.23;;;;;;;14.71;99.05;101845.75;6183675;23;20021;-81
2021/09/12 05:26:37;;;;;;;44.42;18.73;;;;;;;14.77;99.05;101854.69;6183892;23;20001;-80
2021/09/12 05:29:03;;;;;;;48.05;19.58;;;;;;;14.77;99.12;101853.78;6185004;23;20092;-78
2021/09/12 05:31:31;;;;;;;57.47;20.60;;;;;;;14.77;98.94;101846.75;6182907;23;20004;-79
2021/09/12 05:33:56;;;;;;;48.97;20.23;;;;;;;14.80;99.28;101841.50;6184299;23;20009;-80
2021/09/12 05:36:22;;;;;;;48.70;18.80;;;;;;;14.81;98.85;101842.38;6182256;23;20492;-79
2021/09/12 05:38:50;;;;;;;47.05;18.08;;;;;;;14.82;98.79;101844.16;6182424;23;20012;-80
2021/09/12 05:41:18;;;;;;;46.38;19.83;;;;;;;14.83;98.75;101841.53;6182288;23;20433;-81
2021/09/12 05:43:44;;;;;;;51.53;20.05;;;;;;;14.82;99.03;101845.03;6180645;23;20009;-79
2021/09/12 05:46:13;;;;;;;43.08;18.63;;;;;;;14.86;99.21;101845.09;6182744;23;20447;-81
2021/09/12 05:48:42;;;;;;;43.80;17.00;;;;;;;14.92;98.95;101850.47;6180142;23;20013;-80
2021/09/12 05:51:07;;;;;;;41.58;17.88;;;;;;;14.98;98.72;101864.72;6179995;23;20009;-78
2021/09/12 05:53:33;;;;;;;41.58;16.98;;;;;;;15.01;98.57;101854.16;6178974;23;20012;-79
2021/09/12 05:55:59;;;;;;;33.72;15.80;;;;;;;15.10;98.61;101856.06;6180142;23;20009;-79
2021/09/12 05:58:24;;;;;;;35.47;15.95;;;;;;;15.17;97.96;101854.38;6179811;23;20019;-80
2021/09/12 06:00:50;;;;;;;41.30;14.98;;;;;;;15.28;97.87;101854.53;6151481;23;20005;-79
2021/09/12 06:03:16;;;;;;;37.67;15.50;;;;;;;15.32;97.03;101856.34;6177765;23;20009;-79
2021/09/12 06:05:42;;;;;;;39.78;16.02;;;;;;;15.38;96.88;101850.22;6180653;23;20005;-81
2021/09/12 06:08:07;;;;;;;27.77;14.43;;;;;;;15.44;96.53;101853.84;6179052;23;20009;-79
2021/09/12 06:10:35;;;;;;;33.85;14.20;;;;;;;15.51;95.91;101860.13;6181678;23;20001;-78
2021/09/12 06:13:01;;;;;;;29.85;14.80;;;;;;;15.52;95.58;101865.44;6179235;23;20005;-80
2021/09/12 06:15:35;;;;;;;34.05;14.25;;;;;;;15.61;95.85;101861.13;6179975;23;20041;-79
2021/09/12 06:18:00;;;;;;;23.73;13.88;;;;;;;15.66;95.15;101862.06;6180872;23;20051;-79
2021/09/12 06:20:29;;;;;;;35.13;13.38;;;;;;;15.67;94.85;101858.56;6185529;23;20007;-82
2021/09/12 06:22:55;;;;;;;29.50;13.35;;;;;;;15.72;94.71;101867.47;6183041;23;20017;-80
2021/09/12 06:25:43;;;;;;;33.47;12.70;;;;;;;15.77;94.67;101865.72;6184970;23;20009;-80
2021/09/12 06:28:08;;;;;;;27.27;12.90;;;;;;;15.83;94.03;101852.59;6184757;23;20016;-79
2021/09/12 06:30:34;;;;;;;33.90;14.10;;;;;;;15.89;93.58;101865.03;6184254;23;20005;-79
2021/09/12 06:32:59;;;;;;;35.40;14.68;;;;;;;15.85;93.67;101853.47;6184931;23;20347;-81
2021/09/12 06:35:25;;;;;;;34.50;15.20;;;;;;;15.94;93.78;101862.41;6184917;23;20001;-79
2021/09/12 06:37:50;;;;;;;33.03;14.88;;;;;;;16.04;93.76;101855.47;6184675;23;20000;-79
2021/09/12 06:40:16;;;;;;;32.00;14.50;;;;;;;16.10;93.16;101853.75;6184252;23;20011;-79
2021/09/12 06:42:42;;;;;;;30.75;15.93;;;;;;;16.16;93.24;101864.41;6182116;23;20012;-79
2021/09/12 06:45:09;;;;;;;32.05;15.05;;;;;;;16.22;93.00;101870.66;6181859;23;20340;-79
2021/09/12 06:47:34;;;;;;;35.55;16.20;;;;;;;16.25;93.13;101873.34;6182499;23;20484;-81
2021/09/12 06:50:00;;;;;;;39.88;16.35;;;;;;;16.33;92.77;101871.66;6182194;23;20036;-82
2021/09/12 06:52:25;;;;;;;36.55;14.57;;;;;;;16.47;92.01;101870.03;6183459;23;20001;-79
2021/09/12 06:54:51;;;;;;;31.33;15.98;;;;;;;16.56;92.28;101876.28;6184702;23;20001;-78
2021/09/12 06:57:17;;;;;;;34.33;15.82;;;;;;;16.66;91.44;101870.19;6184349;23;20016;-80
2021/09/12 06:59:44;;;;;;;41.38;16.42;;;;;;;16.80;91.43;101878.25;6133530;23;20016;-81
2021/09/12 07:02:11;;;;;;;37.17;18.20;;;;;;;16.91;90.82;101873.91;6183819;23;20055;-79
2021/09/12 07:04:37;;;;;;;38.30;16.95;;;;;;;17.08;90.19;101870.47;6183874;23;20029;-79
2021/09/12 07:07:03;;;;;;;42.45;17.55;;;;;;;17.12;90.61;101873.19;6184267;23;20511;-80
2021/09/12 07:09:28;;;;;;;36.25;17.58;;;;;;;17.25;89.45;101874.13;6184477;23;20001;-79
2021/09/12 07:11:54;;;;;;;41.90;18.83;;;;;;;17.26;89.33;101877.69;6183272;23;20016;-78
2021/09/12 07:14:19;;;;;;;41.92;18.55;;;;;;;17.28;89.54;101878.56;6183783;23;20088;-79
2021/09/12 07:16:45;;;;;;;34.58;17.95;;;;;;;17.38;89.15;101872.44;6184094;23;20337;-80
2021/09/12 07:19:10;;;;;;;41.83;18.35;;;;;;;17.42;88.52;101874.22;6183566;23;20435;-80
2021/09/12 07:21:36;;;;;;;45.13;20.05;;;;;;;17.47;88.58;101871.56;6182838;23;20005;-80
2021/09/12 07:24:02;;;;;;;44.15;20.42;;;;;;;17.45;88.83;101873.34;6183317;23;20093;-79
2021/09/12 07:26:28;;;;;;;43.55;20.52;;;;;;;17.41;88.94;101872.44;6175421;23;20005;-79
2021/09/12 07:28:53;;;;;;;41.35;20.10;;;;;;;17.40;89.50;101880.41;6179752;23;20139;-79
2021/09/12 07:31:19;;;;;;;42.42;19.38;;;;;;;17.53;88.82;101877.81;6179946;23;20009;-80
2021/09/12 07:33:44;;;;;;;42.58;20.63;;;;;;;17.68;88.43;101878.78;6183946;23;20004;-79
2021/09/12 07:36:10;;;;;;;40.22;20.23;;;;;;;17.86;87.97;101878.84;6182562;23;20492;-79
2021/09/12 07:38:38;;;;;;;34.35;19.02;;;;;;;18.09;87.26;101878.00;6181785;23;20009;-81
2021/09/12 07:41:03;;;;;;;40.15;19.02;;;;;;;18.26;86.60;101880.72;6181104;23;20013;-78
2021/09/12 07:43:31;;;;;;;38.65;20.10;;;;;;;18.27;86.01;101884.25;6180306;23;20009;-78
2021/09/12 07:45:57;;;;;;;40.65;18.73;;;;;;;18.29;86.51;101895.81;6179658;23;20082;-80
2021/09/12 07:48:22;;;;;;;39.42;19.15;;;;;;;18.24;86.70;101890.47;6180715;23;20009;-78
2021/09/12 07:50:48;;;;;;;44.38;19.25;;;;;;;18.28;86.55;101894.91;6182670;23;20016;-80
2021/09/12 07:53:13;;;;;;;47.22;22.42;;;;;;;18.24;86.27;101903.78;6181467;23;20514;-80
2021/09/12 07:55:39;;;;;;;46.30;20.35;;;;;;;18.29;85.77;101904.69;6155315;23;20059;-80
2021/09/12 07:58:05;;;;;;;35.65;20.08;;;;;;;18.32;86.47;101895.81;6181695;23;20058;-79
2021/09/12 08:00:30;;;;;;;37.25;19.05;;;;;;;18.44;86.08;101906.50;6177027;23;20324;-80
2021/09/12 08:02:56;;;;;;;43.78;21.20;;;;;;;18.53;85.58;101906.50;6179684;23;20001;-80
2021/09/12 08:05:21;;;;;;;43.80;21.13;;;;;;;18.52;85.77;101903.84;6181139;23;20008;-79
2021/09/12 08:07:49;;;;;;;46.53;21.08;;;;;;;18.61;85.27;101913.59;6180529;23;20005;-80
2021/09/12 08:10:15;;;;;;;41.05;22.10;;;;;;;18.39;85.90;101915.38;6181743;23;20072;-79
2021/09/12 08:13:00;;;;;;;36.03;21.05;;;;;;;18.38;85.84;101911.84;6183684;23;20087;-82
2021/09/12 08:15:26;;;;;;;48.40;20.92;;;;;;;18.48;86.75;101918.06;6161370;23;20009;-79
2021/09/12 08:18:09;;;;;;;45.60;20.48;;;;;;;18.79;84.54;101918.06;6182886;23;20005;-80
2021/09/12 08:20:35;;;;;;;41.17;21.23;;;;;;;19.05;84.79;101918.06;6181767;23;20024;-80
2021/09/12 08:23:07;;;;;;;39.80;19.45;;;;;;;19.37;83.13;101912.66;6181364;23;20037;-81
2021/09/12 08:25:35;;;;;;;39.85;19.48;;;;;;;19.42;82.54;101917.09;6153563;23;20016;-80
2021/09/12 08:28:06;;;;;;;35.97;19.90;;;;;;;19.50;81.75;101921.50;6180859;23;20020;-80
2021/09/12 08:30:51;;;;;;;34.65;19.63;;;;;;;19.48;82.23;101923.31;6181545;23;20008;-79
2021/09/12 08:33:20;;;;;;;35.45;20.20;;;;;;;19.57;81.72;101918.81;6182421;23;20009;-81
2021/09/12 08:35:45;;;;;;;33.20;18.75;;;;;;;19.67;81.61;101921.47;6182299;23;20013;-79
2021/09/12 08:38:23;;;;;;;41.70;19.02;;;;;;;19.93;81.08;101924.94;6182295;23;20001;-79
2021/09/12 08:41:12;;;;;;;34.05;20.05;;;;;;;20.32;78.59;101925.59;6178346;23;20190;-81
2021/09/12 08:43:58;;;;;;;34.67;19.38;;;;;;;20.79;78.11;101919.00;6177705;23;20016;-81
2021/09/12 08:46:24;;;;;;;42.58;20.02;;;;;;;20.95;76.87;101911.75;6153694;23;20436;-78
2021/09/12 08:48:50;;;;;;;32.25;17.73;;;;;;;21.04;75.00;101905.44;6181609;23;20008;-79
2021/09/12 08:51:16;;;;;;;34.92;17.63;;;;;;;21.01;75.53;101916.13;6182852;23;20080;-79
2021/09/12 08:53:41;;;;;;;29.15;17.20;;;;;;;20.77;75.67;101912.81;6183183;23;20048;-79
2021/09/12 08:56:08;;;;;;;33.75;17.60;;;;;;;20.79;76.58;101915.47;6182371;23;20005;-80
2021/09/12 08:58:33;;;;;;;31.77;17.05;;;;;;;20.78;76.58;101924.38;6155464;23;20015;-79
2021/09/12 09:01:00;;;;;;;32.55;17.42;;;;;;;20.58;76.32;101928.09;6177962;23;20005;-78
2021/09/12 09:03:35;;;;;;;30.17;15.30;;;;;;;20.64;76.78;101937.84;6182241;23;20009;-79
2021/09/12 09:06:14;;;;;;;32.33;15.70;;;;;;;20.64;75.79;101944.06;6181663;23;20320;-77
2021/09/12 09:09:08;;;;;;;38.53;17.33;;;;;;;20.59;76.59;101942.34;6181611;23;20016;-80
2021/09/12 09:11:54;;;;;;;31.52;16.10;;;;;;;20.51;76.09;101937.03;6180727;23;20016;-80
2021/09/12 09:14:21;;;;;;;26.80;14.77;;;;;;;20.50;76.80;101946.84;6181846;23;20037;-79
2021/09/12 09:17:18;;;;;;;25.63;13.73;;;;;;;20.65;76.45;101943.19;6183137;23;20359;-78
2021/09/12 09:19:54;;;;;;;25.70;14.23;;;;;;;20.59;76.26;101939.66;6180528;23;20009;-79
2021/09/12 09:22:52;;;;;;;27.52;14.85;;;;;;;20.45;76.91;101943.31;6181845;23;20001;-79
2021/09/12 09:25:19;;;;;;;25.20;14.48;;;;;;;20.88;75.83;101937.66;6152775;23;20021;-78
2021/09/12 09:28:27;;;;;;;25.63;13.52;;;;;;;21.23;75.13;101933.75;6151977;23;20010;-78
2021/09/12 09:30:59;;;;;;;26.52;14.23;;;;;;;22.06;72.09;101928.34;6154116;23;20013;-77
2021/09/12 09:33:45;;;;;;;24.98;13.00;;;;;;;23.03;70.39;101915.16;6151764;23;20009;-78
2021/09/12 09:36:14;;;;;;;20.48;12.00;;;;;;;23.47;64.94;101899.13;6153138;23;20029;-77
2021/09/12 09:38:40;;;;;;;19.67;10.88;;;;;;;22.78;67.14;101910.25;6154930;23;20045;-78
2021/09/12 09:41:48;;;;;;;20.70;11.65;;;;;;;22.21;67.51;101911.16;6153876;23;20575;-78
2021/09/12 09:44:13;;;;;;;20.92;11.23;;;;;;;21.90;68.91;101922.28;6153666;23;20018;-78
2021/09/12 09:47:19;;;;;;;19.25;10.80;;;;;;;21.48;70.88;101928.13;6153865;23;20089;-78
2021/09/12 09:49:46;;;;;;;17.05;11.88;;;;;;;21.03;72.71;101935.75;6151526;23;20033;-79
2021/09/12 09:52:12;;;;;;;19.75;12.02;;;;;;;20.75;74.56;101946.69;6154889;23;20037;-77
2021/09/12 09:54:37;;;;;;;17.67;7.80;;;;;;;20.64;75.20;101948.53;6154996;23;20020;-79
2021/09/12 09:57:03;;;;;;;5.93;4.85;;;;;;;20.58;74.15;101945.91;6153780;23;20017;-77
2021/09/12 09:59:29;;;;;;;8.38;4.50;;;;;;;20.52;73.69;101936.13;6154872;23;20077;-79
2021/09/12 10:01:56;;;;;;;6.57;4.35;;;;;;;20.43;75.24;101942.47;6148702;23;20071;-79
2021/09/12 10:04:26;;;;;;;6.00;3.40;;;;;;;20.55;74.32;101938.78;6153964;23;20037;-78
2021/09/12 10:06:53;;;;;;;5.60;3.22;;;;;;;20.74;74.97;101939.59;6154504;23;20337;-78
2021/09/12 10:09:22;;;;;;;4.03;2.78;;;;;;;21.12;73.27;101935.69;6154601;23;20088;-78
2021/09/12 10:11:55;;;;;;;5.40;2.80;;;;;;;21.44;72.13;101941.59;6153398;23;20013;-79
2021/09/12 10:14:35;;;;;;;3.90;2.50;;;;;;;21.80;69.84;101931.34;6128179;23;20088;-78
2021/09/12 10:17:24;;;;;;;5.03;2.40;;;;;;;22.35;68.86;101935.09;6154460;23;20373;-79
2021/09/12 10:20:04;;;;;;;4.43;2.15;;;;;;;22.73;64.41;101928.22;6153546;23;20009;-77
2021/09/12 10:22:29;;;;;;;4.30;1.65;;;;;;;23.00;63.78;101920.59;6153769;23;20073;-79
2021/09/12 10:25:01;;;;;;;3.83;1.88;;;;;;;23.15;62.54;101919.47;6180027;23;20044;-78
2021/09/12 10:27:53;;;;;;;3.22;1.92;;;;;;;23.06;64.65;101928.53;6184108;23;20079;-78
2021/09/12 10:30:40;;;;;;;3.92;1.83;;;;;;;23.15;62.33;101923.03;6182085;23;20079;-80
2021/09/12 10:33:05;;;;;;;2.88;1.52;;;;;;;23.70;61.58;101929.09;6183779;23;20408;-77
2021/09/12 10:35:47;;;;;;;2.00;1.38;;;;;;;24.42;59.10;101918.53;6183092;23;20009;-81
2021/09/12 10:38:44;;;;;;;2.75;1.27;;;;;;;24.77;57.02;101913.25;6183773;23;20021;-81
2021/09/12 10:41:30;;;;;;;1.42;1.25;;;;;;;24.55;57.40;101916.47;6183351;23;20071;-79
2021/09/12 10:43:56;;;;;;;1.45;0.85;;;;;;;24.70;56.04;101904.44;6183752;23;20009;-79
2021/09/12 10:46:23;;;;;;;2.13;1.00;;;;;;;24.61;57.88;101915.41;6182796;23;20058;-79
2021/09/12 10:48:52;;;;;;;3.53;1.10;;;;;;;24.55;55.49;101905.69;6182858;23;20005;-78
2021/09/12 10:51:20;;;;;;;2.60;1.20;;;;;;;24.50;58.76;101914.78;6182289;23;20380;-79
2021/09/12 10:53:45;;;;;;;2.50;0.90;;;;;;;24.37;56.65;101906.13;6183123;23;20012;-79
2021/09/12 10:56:50;;;;;;;2.97;0.90;;;;;;;25.23;53.38;101908.41;6183411;23;20013;-79
2021/09/12 10:59:16;;;;;;;3.20;1.08;;;;;;;26.08;50.50;101905.97;6182687;23;20009;-78
2021/09/12 11:02:05;;;;;;;2.40;0.80;;;;;;;26.47;50.06;101908.31;6176578;23;20056;-81
2021/09/12 11:04:33;;;;;;;1.27;0.68;;;;;;;27.26;46.34;101897.50;6156241;23;20013;-76
2021/09/12 11:07:04;;;;;;;3.50;0.75;;;;;;;28.07;44.75;101892.66;6182463;23;20035;-79
2021/09/12 11:09:31;;;;;;;3.22;0.95;;;;;;;28.21;45.45;101903.78;6182180;23;20103;-79
2021/09/12 11:12:16;;;;;;;3.65;0.98;;;;;;;28.62;44.25;101899.41;6182224;23;20112;-80
2021/09/12 11:14:42;;;;;;;2.33;0.80;;;;;;;29.40;43.71;101897.84;6182672;23;20009;-80
2021/09/12 11:17:12;;;;;;;2.70;0.98;;;;;;;30.19;40.08;101895.00;6182439;23;20043;-78
2021/09/12 11:20:45;;;;;;;;;;;;;;;;;;;;;
2021/09/12 11:23:51;;;;;;;2.25;1.10;;;;;;;30.97;37.13;101881.09;6092103;23;20025;-84
2021/09/12 11:28:01;;;;;;;;;;;;;;;;;;;;;
2021/09/12 11:30:59;;;;;;;3.75;1.15;;;;;;;29.41;43.24;101889.63;6078243;23;20089;-82
2021/09/12 11:33:52;;;;;;;2.80;1.23;;;;;;;29.18;39.87;101890.66;6143370;23;20012;-82
2021/09/12 11:36:22;;;;;;;3.47;1.10;;;;;;;29.29;39.25;101875.75;6182397;23;20094;-83